createdAt,value
2018-08-12T00:01:38.127Z,16.36
2018-08-12T00:06:33.588Z,16.23
2018-08-12T00:11:30.103Z,16.12
2018-08-12T00:16:25.672Z,16.09
2018-08-12T00:21:22.166Z,16.05
2018-08-12T00:26:19.140Z,15.91
2018-08-12T00:31:14.526Z,15.98
2018-08-12T00:36:10.345Z,15.95
2018-08-12T00:41:06.202Z,16.35
2018-08-12T00:46:03.413Z,16.35
2018-08-12T00:50:59.695Z,16.28
2018-08-12T00:55:56.477Z,16.10
2018-08-12T01:00:51.822Z,15.76
2018-08-12T01:05:48.742Z,15.83
2018-08-12T01:10:44.150Z,15.83
2018-08-12T01:15:40.143Z,15.84
2018-08-12T01:20:35.626Z,15.77
2018-08-12T01:25:31.378Z,15.57
2018-08-12T01:30:26.961Z,15.61
2018-08-12T01:35:22.663Z,15.55
2018-08-12T01:40:18.446Z,15.31
2018-08-12T01:45:15.561Z,15.37
2018-08-12T01:50:10.948Z,15.59
2018-08-12T01:55:08.082Z,15.44
2018-08-12T02:00:04.463Z,15.47
2018-08-12T02:05:01.341Z,15.57
2018-08-12T02:09:57.204Z,15.55
2018-08-12T02:14:53.065Z,15.31
2018-08-12T02:19:49.332Z,15.33
2018-08-12T02:24:45.246Z,15.52
2018-08-12T02:29:42.349Z,15.67
2018-08-12T02:34:38.904Z,15.82
2018-08-12T02:39:35.502Z,15.58
2018-08-12T02:44:32.130Z,15.36
2018-08-12T02:49:28.509Z,15.29
2018-08-12T02:54:24.104Z,15.44
2018-08-12T02:59:19.832Z,15.55
2018-08-12T03:04:15.536Z,15.44
2018-08-12T03:09:11.758Z,15.35
2018-08-12T03:14:07.664Z,15.18
2018-08-12T03:19:03.490Z,15.14
2018-08-12T03:24:00.079Z,15.06
2018-08-12T03:28:55.666Z,15.04
2018-08-12T03:33:52.412Z,14.86
2018-08-12T03:38:47.999Z,14.86
2018-08-12T03:43:44.049Z,14.65
2018-08-12T03:48:39.671Z,14.60
2018-08-12T03:53:36.980Z,14.55
2018-08-12T03:58:32.990Z,14.60
2018-08-12T04:03:28.709Z,14.43
2018-08-12T04:08:25.697Z,14.30
2018-08-12T04:13:21.441Z,14.28
2018-08-12T04:18:17.002Z,14.44
2018-08-12T04:23:12.746Z,14.51
2018-08-12T04:28:09.908Z,14.51
2018-08-12T04:33:05.676Z,14.45
2018-08-12T04:38:01.453Z,14.47
2018-08-12T04:42:57.500Z,14.63
2018-08-12T04:47:53.354Z,14.60
2018-08-12T04:52:48.978Z,14.53
2018-08-12T04:57:44.954Z,14.54
2018-08-12T05:02:40.521Z,14.53
2018-08-12T05:07:36.846Z,14.60
2018-08-12T05:12:32.739Z,14.86
2018-08-12T05:17:29.686Z,14.92
2018-08-12T05:22:26.476Z,14.99
2018-08-12T05:27:22.191Z,15.36
2018-08-12T05:32:18.564Z,15.67
2018-08-12T05:37:15.490Z,15.80
2018-08-12T05:42:11.152Z,15.97
2018-08-12T05:47:07.095Z,16.15
2018-08-12T05:52:03.029Z,16.20
2018-08-12T05:57:00.760Z,16.26
2018-08-12T06:01:56.290Z,16.41
2018-08-12T06:06:52.126Z,16.47
2018-08-12T06:11:48.442Z,16.72
2018-08-12T06:16:44.137Z,17.01
2018-08-12T06:21:40.313Z,17.12
2018-08-12T06:26:36.464Z,17.22
2018-08-12T06:31:32.525Z,17.22
2018-08-12T06:36:28.547Z,17.45
2018-08-12T06:41:24.855Z,17.71
2018-08-12T06:46:20.704Z,17.76
2018-08-12T06:51:16.676Z,17.78
2018-08-12T06:56:12.497Z,17.87
2018-08-12T07:01:09.359Z,18.03
2018-08-12T07:06:05.325Z,18.23
2018-08-12T07:11:01.139Z,18.41
2018-08-12T07:15:57.293Z,18.65
2018-08-12T07:20:53.840Z,18.78
2018-08-12T07:25:51.097Z,18.84
2018-08-12T07:30:46.841Z,18.89
2018-08-12T07:35:43.413Z,19.33
2018-08-12T07:40:41.366Z,20.07
2018-08-12T07:45:39.509Z,20.48
2018-08-12T07:50:36.825Z,20.92
2018-08-12T07:55:35.378Z,22.26
2018-08-12T08:00:33.082Z,23.24
2018-08-12T08:05:31.359Z,23.95
2018-08-12T08:10:29.791Z,24.50
2018-08-12T08:15:25.386Z,24.14
2018-08-12T08:20:21.785Z,24.03
2018-08-12T08:25:18.718Z,24.13
2018-08-12T08:30:13.540Z,23.61
2018-08-12T08:35:10.756Z,23.74
2018-08-12T08:40:06.968Z,23.95
2018-08-12T08:45:03.851Z,24.47
2018-08-12T08:49:59.425Z,24.03
2018-08-12T08:54:54.119Z,23.88
2018-08-12T08:59:49.398Z,23.39
2018-08-12T09:04:44.413Z,23.31
2018-08-12T09:09:39.929Z,23.43
2018-08-12T09:14:35.766Z,23.56
2018-08-12T09:19:31.576Z,23.46
2018-08-12T09:24:28.359Z,23.83
2018-08-12T09:29:25.243Z,24.05
2018-08-12T09:34:20.983Z,24.32
2018-08-12T09:39:18.047Z,25.32
2018-08-12T09:44:16.658Z,25.84
2018-08-12T09:49:14.344Z,26.03
2018-08-12T09:54:10.378Z,25.81
2018-08-12T09:59:08.360Z,26.02
2018-08-12T10:04:04.972Z,25.95
2018-08-12T10:09:01.539Z,26.23
2018-08-12T10:13:57.966Z,26.26
2018-08-12T10:18:54.352Z,26.13
2018-08-12T10:23:51.630Z,26.25
2018-08-12T10:28:48.354Z,26.48
2018-08-12T10:33:45.198Z,26.83
2018-08-12T10:38:42.211Z,26.93
2018-08-12T10:43:38.997Z,27.08
2018-08-12T10:48:35.417Z,26.95
2018-08-12T10:53:31.894Z,27.18
2018-08-12T10:58:29.571Z,27.58
2018-08-12T11:03:25.965Z,27.74
2018-08-12T11:08:22.501Z,27.95
2018-08-12T11:13:19.981Z,27.86
2018-08-12T11:18:17.146Z,27.80
2018-08-12T11:23:13.983Z,27.68
2018-08-12T11:28:10.046Z,27.58
2018-08-12T11:33:06.545Z,27.75
2018-08-12T11:38:02.312Z,27.63
2018-08-12T11:42:58.625Z,27.71
2018-08-12T11:47:55.116Z,28.07
2018-08-12T11:52:51.991Z,28.04
2018-08-12T11:57:49.433Z,27.87
2018-08-12T12:02:47.622Z,28.26
2018-08-12T12:07:42.845Z,28.23
2018-08-12T12:12:37.538Z,27.68
2018-08-12T12:17:33.705Z,27.73
2018-08-12T12:22:28.771Z,27.83
2018-08-12T12:27:24.183Z,27.70
2018-08-12T12:32:20.246Z,27.70
2018-08-12T12:37:14.450Z,27.47
2018-08-12T12:42:12.944Z,27.42
2018-08-12T12:47:07.857Z,27.40
2018-08-12T12:52:03.035Z,27.20
2018-08-12T12:56:59.259Z,27.15
2018-08-12T13:01:54.825Z,27.29
2018-08-12T13:06:50.916Z,27.42
2018-08-12T13:11:49.406Z,28.05
2018-08-12T13:16:45.767Z,27.98
2018-08-12T13:21:42.048Z,28.29
2018-08-12T13:26:37.342Z,28.19
2018-08-12T13:31:33.396Z,28.11
2018-08-12T13:36:29.681Z,28.37
2018-08-12T13:41:26.054Z,28.11
2018-08-12T13:46:21.830Z,28.07
2018-08-12T13:51:17.395Z,27.73
2018-08-12T13:56:12.830Z,27.49
2018-08-12T14:01:08.092Z,27.39
2018-08-12T14:06:03.725Z,27.07
2018-08-12T14:10:59.427Z,27.03
2018-08-12T14:15:56.609Z,27.33
2018-08-12T14:20:52.183Z,27.22
2018-08-12T14:25:48.542Z,27.25
2018-08-12T14:30:44.865Z,27.08
2018-08-12T14:35:41.137Z,27.33
2018-08-12T14:40:37.032Z,27.12
2018-08-12T14:45:33.330Z,26.93
2018-08-12T14:50:29.353Z,27.02
2018-08-12T14:55:25.236Z,26.95
2018-08-12T15:00:22.148Z,27.07
2018-08-12T15:05:17.792Z,27.21
2018-08-12T15:10:13.843Z,27.02
2018-08-12T15:15:09.977Z,27.08
2018-08-12T15:20:06.013Z,27.17
2018-08-12T15:25:01.912Z,27.14
2018-08-12T15:29:58.192Z,27.25
2018-08-12T15:34:55.240Z,27.21
2018-08-12T15:39:51.299Z,27.39
2018-08-12T15:44:48.468Z,27.25
2018-08-12T15:49:44.146Z,27.12
2018-08-12T15:54:41.123Z,27.10
2018-08-12T15:59:36.747Z,27.10
2018-08-12T16:04:32.562Z,27.11
2018-08-12T16:09:28.562Z,27.07
2018-08-12T16:14:24.494Z,26.97
2018-08-12T16:19:20.584Z,27.05
2018-08-12T16:24:16.666Z,27.02
2018-08-12T16:29:12.667Z,27.02
2018-08-12T16:34:09.732Z,26.99
2018-08-12T16:39:06.468Z,26.92
2018-08-12T16:44:02.208Z,26.80
2018-08-12T16:48:58.991Z,26.74
2018-08-12T16:53:55.528Z,26.65
2018-08-12T16:58:52.308Z,26.53
2018-08-12T17:03:49.098Z,26.59
2018-08-12T17:08:46.111Z,26.55
2018-08-12T17:13:42.570Z,26.56
2018-08-12T17:18:38.152Z,26.60
2018-08-12T17:23:34.370Z,26.58
2018-08-12T17:28:31.423Z,26.65
2018-08-12T17:33:27.133Z,26.53
2018-08-12T17:38:23.106Z,26.60
2018-08-12T17:43:18.942Z,26.60
2018-08-12T17:48:15.477Z,26.58
2018-08-12T17:53:11.464Z,26.56
2018-08-12T17:58:07.338Z,26.45
2018-08-12T18:03:03.428Z,26.43
2018-08-12T18:07:59.142Z,26.33
2018-08-12T18:12:55.254Z,26.18
2018-08-12T18:17:52.042Z,26.07
2018-08-12T18:22:47.992Z,25.99
2018-08-12T18:27:43.690Z,26.09
2018-08-12T18:32:39.516Z,25.84
2018-08-12T18:37:35.407Z,25.66
2018-08-12T18:42:31.282Z,25.55
2018-08-12T18:47:28.345Z,25.38
2018-08-12T18:52:23.941Z,25.22
2018-08-12T18:57:20.341Z,25.16
2018-08-12T19:02:16.763Z,25.04
2018-08-12T19:07:12.584Z,24.93
2018-08-12T19:12:08.309Z,24.84
2018-08-12T19:17:04.184Z,24.58
2018-08-12T19:22:00.308Z,24.47
2018-08-12T19:26:56.133Z,24.26
2018-08-12T19:31:52.169Z,24.18
2018-08-12T19:36:48.467Z,24.08
2018-08-12T19:41:44.881Z,23.99
2018-08-12T19:46:40.922Z,23.76
2018-08-12T19:51:36.610Z,23.61
2018-08-12T19:56:32.350Z,23.47
2018-08-12T20:01:28.540Z,23.51
2018-08-12T20:06:24.932Z,23.43
2018-08-12T20:11:20.615Z,23.36
2018-08-12T20:16:16.595Z,23.24
2018-08-12T20:21:12.415Z,23.23
2018-08-12T20:26:09.321Z,23.09
2018-08-12T20:31:05.919Z,23.00
2018-08-12T20:36:01.335Z,22.90
2018-08-12T20:40:57.242Z,22.93
2018-08-12T20:45:53.119Z,22.88
2018-08-12T20:50:49.302Z,22.72
2018-08-12T20:55:45.246Z,22.51
2018-08-12T21:00:41.137Z,22.35
2018-08-12T21:05:36.997Z,22.50
2018-08-12T21:10:32.648Z,22.51
2018-08-12T21:15:28.943Z,22.39
2018-08-12T21:20:24.809Z,22.33
2018-08-12T21:25:21.809Z,22.30
2018-08-12T21:30:17.671Z,22.23
2018-08-12T21:35:13.533Z,22.22
2018-08-12T21:40:09.299Z,22.18
2018-08-12T21:45:06.272Z,22.07
2018-08-12T21:50:01.767Z,22.08
2018-08-12T21:54:57.825Z,22.02
2018-08-12T21:59:53.801Z,21.77
2018-08-12T22:04:49.553Z,21.79
2018-08-12T22:09:46.352Z,21.77
2018-08-12T22:14:41.885Z,21.69
2018-08-12T22:19:37.677Z,21.73
2018-08-12T22:24:34.604Z,21.79
2018-08-12T22:29:30.130Z,21.76
2018-08-12T22:34:26.147Z,21.79
2018-08-12T22:39:22.252Z,21.77
2018-08-12T22:44:18.506Z,21.64
2018-08-12T22:49:14.323Z,21.55
2018-08-12T22:54:10.165Z,21.52
2018-08-12T22:59:05.916Z,21.40
2018-08-12T23:04:02.422Z,21.36
2018-08-12T23:08:58.351Z,21.24
2018-08-12T23:13:55.295Z,21.25
2018-08-12T23:18:51.614Z,21.07
2018-08-12T23:23:47.440Z,21.02
2018-08-12T23:28:43.485Z,20.97
2018-08-12T23:33:39.290Z,20.99
2018-08-12T23:38:35.336Z,20.93
2018-08-12T23:43:31.179Z,20.81
2018-08-12T23:48:27.660Z,20.84
2018-08-12T23:53:24.573Z,20.77
2018-08-12T23:58:20.461Z,20.82
